createdAt,value
2023-03-08T00:00:10.659Z,95523.19
2023-03-08T00:01:16.478Z,95519.00
2023-03-08T00:02:18.674Z,95522.97
2023-03-08T00:03:20.476Z,95524.34
2023-03-08T00:04:22.369Z,95536.31
2023-03-08T00:05:24.421Z,95535.31
2023-03-08T00:06:26.940Z,95533.53
2023-03-08T00:07:28.769Z,95540.09
2023-03-08T00:08:30.614Z,95540.09
2023-03-08T00:09:32.454Z,95542.06
2023-03-08T00:10:34.423Z,95543.09
2023-03-08T00:11:36.341Z,95542.88
2023-03-08T00:12:38.183Z,95540.88
2023-03-08T00:13:40.271Z,95545.88
2023-03-08T00:14:42.132Z,95546.88
2023-03-08T00:15:44.738Z,95546.28
2023-03-08T00:16:46.645Z,95546.66
2023-03-08T00:17:48.716Z,95545.28
2023-03-08T00:18:50.602Z,95541.88
2023-03-08T00:19:52.581Z,95555.41
2023-03-08T00:21:01.031Z,95546.47
2023-03-08T00:22:02.883Z,95553.06
2023-03-08T00:23:04.834Z,95549.06
2023-03-08T00:24:06.815Z,95561.41
2023-03-08T00:25:09.381Z,95553.63
2023-03-08T00:26:12.039Z,95562.41
2023-03-08T00:27:13.959Z,95570.34
2023-03-08T00:28:15.826Z,95568.78
2023-03-08T00:29:17.779Z,95565.00
2023-03-08T00:30:20.131Z,95572.59
2023-03-08T00:31:22.162Z,95577.75
2023-03-08T00:32:25.738Z,95578.78
2023-03-08T00:33:28.298Z,95578.78
2023-03-08T00:34:30.145Z,95575.19
2023-03-08T00:35:32.080Z,95584.34
2023-03-08T00:36:33.916Z,95583.91
2023-03-08T00:37:35.867Z,95581.53
2023-03-08T00:38:37.775Z,95588.50
2023-03-08T00:39:40.036Z,95584.94
2023-03-08T00:40:41.915Z,95584.16
2023-03-08T00:41:43.901Z,95581.00
2023-03-08T00:42:45.891Z,95592.16
2023-03-08T00:43:47.965Z,95595.53
2023-03-08T00:44:49.806Z,95591.16
2023-03-08T00:45:53.174Z,95594.75
2023-03-08T00:46:55.704Z,95594.56
2023-03-08T00:47:57.728Z,95601.69
2023-03-08T00:49:00.184Z,95597.31
2023-03-08T00:50:02.061Z,95602.47
2023-03-08T00:51:04.192Z,95592.91
2023-03-08T00:52:06.397Z,95596.69
2023-03-08T00:53:08.908Z,95588.94
2023-03-08T00:54:10.787Z,95593.50
2023-03-08T00:55:12.598Z,95601.28
2023-03-08T00:56:14.948Z,95606.44
2023-03-08T00:57:16.847Z,95602.88
2023-03-08T00:58:19.209Z,95607.88
2023-03-08T00:59:21.056Z,95608.22
2023-03-08T01:00:23.060Z,95609.84
2023-03-08T01:01:24.984Z,95611.84
2023-03-08T01:02:26.796Z,95615.63
2023-03-08T01:03:28.705Z,95622.03
2023-03-08T01:04:32.907Z,95611.47
2023-03-08T01:05:35.380Z,95613.88
2023-03-08T01:06:37.191Z,95616.84
2023-03-08T01:07:39.132Z,95618.03
2023-03-08T01:08:42.726Z,95617.25
2023-03-08T01:09:44.614Z,95612.44
2023-03-08T01:10:50.131Z,95615.63
2023-03-08T01:11:51.971Z,95617.22
2023-03-08T01:12:56.179Z,95617.63
2023-03-08T01:13:57.970Z,95616.41
2023-03-08T01:14:59.760Z,95616.22
2023-03-08T01:16:02.105Z,95610.81
2023-03-08T01:17:04.042Z,95616.59
2023-03-08T01:18:06.547Z,95613.59
2023-03-08T01:19:08.350Z,95611.63
2023-03-08T01:20:10.566Z,95611.25
2023-03-08T01:21:12.744Z,95595.72
2023-03-08T01:22:14.557Z,95597.09
2023-03-08T01:23:16.501Z,95596.88
2023-03-08T01:24:18.390Z,95593.72
2023-03-08T01:25:20.426Z,95602.09
2023-03-08T01:26:23.505Z,95606.94
2023-03-08T01:27:25.385Z,95599.38
2023-03-08T01:28:27.417Z,95602.56
2023-03-08T01:29:29.338Z,95606.72
2023-03-08T01:30:31.348Z,95593.41
2023-03-08T01:31:33.229Z,95599.75
2023-03-08T01:32:35.098Z,95591.78
2023-03-08T01:33:37.035Z,95596.94
2023-03-08T01:34:39.380Z,95597.38
2023-03-08T01:35:41.330Z,95603.53
2023-03-08T01:36:43.214Z,95604.56
2023-03-08T01:37:45.090Z,95584.66
2023-03-08T01:38:47.682Z,95574.72
2023-03-08T01:39:49.528Z,95589.63
2023-03-08T01:40:55.841Z,95589.84
2023-03-08T01:41:57.800Z,95588.44
2023-03-08T01:42:59.675Z,95593.03
2023-03-08T01:44:01.476Z,95593.03
2023-03-08T01:45:23.233Z,95600.19
2023-03-08T01:46:27.094Z,95601.00
2023-03-08T01:47:33.061Z,95599.78
2023-03-08T01:48:44.699Z,95586.66
2023-03-08T01:49:49.016Z,95584.88
2023-03-08T01:50:51.073Z,95596.78
2023-03-08T01:52:00.681Z,95593.78
2023-03-08T01:53:02.640Z,95588.22
2023-03-08T01:54:09.952Z,95579.09
2023-03-08T01:55:13.274Z,95591.03
2023-03-08T01:56:16.846Z,95595.75
2023-03-08T01:57:30.413Z,95590.94
2023-03-08T01:58:32.326Z,95589.56
2023-03-08T01:59:34.916Z,95577.88
2023-03-08T02:00:38.387Z,95588.22
2023-03-08T02:01:40.807Z,95587.22
2023-03-08T02:02:45.421Z,95587.63
2023-03-08T02:03:48.309Z,95585.44
2023-03-08T02:04:50.148Z,95578.06
2023-03-08T02:05:51.940Z,95578.69
2023-03-08T02:06:53.793Z,95587.84
2023-03-08T02:07:55.694Z,95582.28
2023-03-08T02:08:58.141Z,95574.34
2023-03-08T02:10:00.013Z,95584.06
2023-03-08T02:11:02.315Z,95575.94
2023-03-08T02:12:07.357Z,95577.91
2023-03-08T02:13:09.947Z,95576.34
2023-03-08T02:14:11.856Z,95573.53
2023-03-08T02:15:15.729Z,95564.78
2023-03-08T02:16:18.356Z,95561.19
2023-03-08T02:17:20.248Z,95571.94
2023-03-08T02:18:22.469Z,95558.81
2023-03-08T02:19:29.646Z,95569.75
2023-03-08T02:20:34.686Z,95569.97
2023-03-08T02:21:36.607Z,95559.78
2023-03-08T02:22:39.408Z,95565.56
2023-03-08T02:23:41.388Z,95567.56
2023-03-08T02:24:43.596Z,95564.00
2023-03-08T02:25:51.745Z,95556.81
2023-03-08T02:26:58.470Z,95569.75
2023-03-08T02:28:00.911Z,95575.72
2023-03-08T02:29:02.802Z,95557.25
2023-03-08T02:30:04.836Z,95551.06
2023-03-08T02:31:06.789Z,95557.25
2023-03-08T02:32:09.192Z,95562.00
2023-03-08T02:33:11.250Z,95564.78
2023-03-08T02:34:13.198Z,95566.78
2023-03-08T02:35:15.094Z,95559.22
2023-03-08T02:36:16.997Z,95563.00
2023-03-08T02:37:18.936Z,95555.25
2023-03-08T02:38:21.491Z,95557.06
2023-03-08T02:39:23.370Z,95552.44
2023-03-08T02:40:25.634Z,95548.31
2023-03-08T02:41:27.571Z,95548.88
2023-03-08T02:42:29.524Z,95548.88
2023-03-08T02:43:31.489Z,95552.88
2023-03-08T02:44:33.358Z,95551.88
2023-03-08T02:45:35.447Z,95551.88
2023-03-08T02:46:37.360Z,95547.72
2023-03-08T02:47:39.215Z,95542.91
2023-03-08T02:48:41.067Z,95537.75
2023-03-08T02:49:42.973Z,95533.78
2023-03-08T02:50:44.921Z,95545.31
2023-03-08T02:51:46.793Z,95546.50
2023-03-08T02:52:48.777Z,95546.09
2023-03-08T02:53:50.574Z,95541.75
2023-03-08T02:54:54.103Z,95543.13
2023-03-08T02:55:56.092Z,95537.16
2023-03-08T02:56:58.009Z,95540.16
2023-03-08T02:57:59.879Z,95546.91
2023-03-08T02:59:01.733Z,95546.13
2023-03-08T03:00:04.361Z,95554.06
2023-03-08T03:01:11.116Z,95542.72
2023-03-08T03:02:13.245Z,95554.66
2023-03-08T03:03:15.118Z,95561.59
2023-03-08T03:04:17.007Z,95556.44
2023-03-08T03:05:19.031Z,95563.00
2023-03-08T03:06:20.986Z,95560.63
2023-03-08T03:07:23.017Z,95565.19
2023-03-08T03:08:24.945Z,95570.94
2023-03-08T03:09:26.936Z,95564.78
2023-03-08T03:10:28.875Z,95557.22
2023-03-08T03:11:30.737Z,95549.47
2023-03-08T03:12:32.744Z,95556.25
2023-03-08T03:13:34.606Z,95558.84
2023-03-08T03:14:36.481Z,95559.63
2023-03-08T03:15:39.760Z,95555.25
2023-03-08T03:16:41.612Z,95553.28
2023-03-08T03:17:43.476Z,95562.00
2023-03-08T03:18:45.329Z,95560.81
2023-03-08T03:19:47.240Z,95568.97
2023-03-08T03:20:49.092Z,95572.75
2023-03-08T03:21:51.103Z,95569.94
2023-03-08T03:22:53.066Z,95565.38
2023-03-08T03:23:55.333Z,95566.78
2023-03-08T03:24:57.223Z,95562.78
2023-03-08T03:26:04.963Z,95570.53
2023-03-08T03:27:06.879Z,95562.59
2023-03-08T03:28:08.737Z,95566.56
2023-03-08T03:29:10.666Z,95581.09
2023-03-08T03:30:13.340Z,95572.34
2023-03-08T03:31:16.683Z,95576.72
2023-03-08T03:32:18.703Z,95582.31
2023-03-08T03:33:20.617Z,95584.09
2023-03-08T03:34:22.624Z,95586.06
2023-03-08T03:35:24.500Z,95577.91
2023-03-08T03:36:26.410Z,95577.69
2023-03-08T03:37:28.325Z,95574.91
2023-03-08T03:38:30.365Z,95583.09
2023-03-08T03:39:35.725Z,95584.47
2023-03-08T03:40:37.593Z,95578.50
2023-03-08T03:41:39.394Z,95584.69
2023-03-08T03:42:41.227Z,95587.88
2023-03-08T03:43:43.231Z,95582.28
2023-03-08T03:44:45.090Z,95582.69
2023-03-08T03:45:55.076Z,95590.03
2023-03-08T03:46:57.165Z,95587.06
2023-03-08T03:47:59.048Z,95585.66
2023-03-08T03:49:01.001Z,95582.69
2023-03-08T03:50:02.924Z,95580.28
2023-03-08T03:51:06.363Z,95589.41
2023-03-08T03:52:08.164Z,95593.19
2023-03-08T03:53:10.088Z,95592.41
2023-03-08T03:54:12.003Z,95589.22
2023-03-08T03:55:13.790Z,95590.84
2023-03-08T03:56:17.133Z,95593.00
2023-03-08T03:57:20.182Z,95595.41
2023-03-08T03:58:22.157Z,95592.41
2023-03-08T03:59:26.554Z,95595.78
2023-03-08T04:00:28.763Z,95593.00
2023-03-08T04:01:31.623Z,95593.78
2023-03-08T04:02:33.726Z,95594.81
2023-03-08T04:03:35.686Z,95593.00
2023-03-08T04:04:37.717Z,95588.03
2023-03-08T04:05:40.386Z,95592.63
2023-03-08T04:06:42.301Z,95591.84
2023-03-08T04:07:44.263Z,95586.06
2023-03-08T04:08:46.683Z,95592.44
2023-03-08T04:09:48.846Z,95586.25
2023-03-08T04:10:50.777Z,95592.63
2023-03-08T04:11:52.664Z,95587.84
2023-03-08T04:12:54.461Z,95596.00
2023-03-08T04:13:56.342Z,95592.22
2023-03-08T04:14:58.185Z,95588.84
2023-03-08T04:16:00.192Z,95591.03
2023-03-08T04:17:02.114Z,95591.22
2023-03-08T04:18:04.025Z,95591.81
2023-03-08T04:19:07.459Z,95590.81
2023-03-08T04:20:09.594Z,95592.03
2023-03-08T04:21:11.932Z,95600.19
2023-03-08T04:22:13.790Z,95592.81
2023-03-08T04:23:15.722Z,95599.78
2023-03-08T04:24:17.615Z,95588.84
2023-03-08T04:25:19.557Z,95587.47
2023-03-08T04:26:21.620Z,95590.63
2023-03-08T04:27:23.594Z,95587.66
2023-03-08T04:28:25.467Z,95593.84
2023-03-08T04:29:27.369Z,95592.22
2023-03-08T04:30:30.935Z,95591.44
2023-03-08T04:31:35.246Z,95595.41
2023-03-08T04:32:37.109Z,95592.22
2023-03-08T04:33:38.930Z,95593.63
2023-03-08T04:34:40.868Z,95589.06
2023-03-08T04:35:42.892Z,95590.63
2023-03-08T04:36:44.787Z,95594.59
2023-03-08T04:37:49.373Z,95597.78
2023-03-08T04:38:51.959Z,95597.00
2023-03-08T04:39:53.814Z,95590.63
2023-03-08T04:41:13.790Z,95599.97
2023-03-08T04:42:15.673Z,95600.97
2023-03-08T04:43:17.502Z,95599.97
2023-03-08T04:44:19.426Z,95606.53
2023-03-08T04:45:21.356Z,95601.38
2023-03-08T04:46:25.449Z,95591.44
2023-03-08T04:47:27.330Z,95589.63
2023-03-08T04:48:29.357Z,95585.25
2023-03-08T04:49:31.190Z,95592.81
2023-03-08T04:50:33.126Z,95586.06
2023-03-08T04:51:35.077Z,95593.00
2023-03-08T04:52:37.004Z,95594.81
2023-03-08T04:53:39.598Z,95595.41
2023-03-08T04:54:41.555Z,95593.41
2023-03-08T04:55:43.493Z,95592.22
2023-03-08T04:56:45.446Z,95590.22
2023-03-08T04:57:47.249Z,95590.63
2023-03-08T04:58:49.559Z,95596.78
2023-03-08T04:59:51.832Z,95597.59
2023-03-08T05:00:53.743Z,95600.59
2023-03-08T05:01:55.689Z,95587.84
2023-03-08T05:02:57.554Z,95598.38
2023-03-08T05:03:59.901Z,95595.81
2023-03-08T05:05:02.044Z,95586.66
2023-03-08T05:06:04.099Z,95585.25
2023-03-08T05:07:06.001Z,95587.47
2023-03-08T05:08:07.802Z,95585.06
2023-03-08T05:09:09.765Z,95586.66
2023-03-08T05:10:11.729Z,95583.47
2023-03-08T05:11:17.988Z,95588.06
2023-03-08T05:12:19.855Z,95594.78
2023-03-08T05:13:21.734Z,95591.03
2023-03-08T05:14:23.553Z,95584.66
2023-03-08T05:15:25.529Z,95583.06
2023-03-08T05:16:27.563Z,95584.69
2023-03-08T05:17:29.424Z,95583.06
2023-03-08T05:18:31.542Z,95579.91
2023-03-08T05:19:33.392Z,95574.91
2023-03-08T05:20:35.341Z,95571.16
2023-03-08T05:21:37.195Z,95572.53
2023-03-08T05:22:55.019Z,95575.72
2023-03-08T05:24:00.360Z,95575.34
2023-03-08T05:25:02.195Z,95578.09
2023-03-08T05:26:05.507Z,95575.13
2023-03-08T05:27:07.961Z,95575.13
2023-03-08T05:28:09.768Z,95571.16
2023-03-08T05:29:11.810Z,95568.19
2023-03-08T05:30:13.838Z,95563.19
2023-03-08T05:31:16.931Z,95567.75
2023-03-08T05:32:18.910Z,95571.53
2023-03-08T05:33:20.832Z,95573.34
2023-03-08T05:34:22.754Z,95567.97
2023-03-08T05:35:24.659Z,95567.97
2023-03-08T05:36:26.647Z,95567.19
2023-03-08T05:37:28.592Z,95564.38
2023-03-08T05:38:30.379Z,95568.56
2023-03-08T05:39:32.330Z,95570.97
2023-03-08T05:40:34.180Z,95571.34
2023-03-08T05:41:36.096Z,95572.34
2023-03-08T05:42:38.073Z,95577.50
2023-03-08T05:43:40.220Z,95577.91
2023-03-08T05:44:42.108Z,95576.50
2023-03-08T05:45:44.823Z,95575.53
2023-03-08T05:46:46.702Z,95578.50
2023-03-08T05:47:48.538Z,95573.13
2023-03-08T05:48:50.431Z,95575.13
2023-03-08T05:49:52.597Z,95570.34
2023-03-08T05:50:54.640Z,95571.75
2023-03-08T05:51:56.537Z,95571.94
2023-03-08T05:52:58.423Z,95571.75
2023-03-08T05:54:00.242Z,95575.31
2023-03-08T05:55:02.158Z,95575.50
2023-03-08T05:56:12.923Z,95573.75
2023-03-08T05:57:14.754Z,95573.94
2023-03-08T05:58:16.739Z,95571.56
2023-03-08T05:59:18.867Z,95574.94
2023-03-08T06:00:20.940Z,95573.53
2023-03-08T06:01:24.339Z,95571.75
2023-03-08T06:02:26.233Z,95571.53
2023-03-08T06:03:28.162Z,95566.38
2023-03-08T06:04:30.018Z,95569.56
2023-03-08T06:05:32.765Z,95578.91
2023-03-08T06:06:35.022Z,95576.72
2023-03-08T06:07:36.983Z,95582.88
2023-03-08T06:08:39.369Z,95573.94
2023-03-08T06:09:41.313Z,95574.91
2023-03-08T06:10:43.257Z,95573.13
2023-03-08T06:11:45.148Z,95573.34
2023-03-08T06:12:47.067Z,95566.38
2023-03-08T06:13:48.905Z,95567.56
2023-03-08T06:14:50.887Z,95565.38
2023-03-08T06:15:59.007Z,95569.34
2023-03-08T06:17:01.017Z,95565.56
2023-03-08T06:18:03.055Z,95573.13
2023-03-08T06:19:04.831Z,95571.94
2023-03-08T06:20:07.289Z,95566.38
2023-03-08T06:21:11.607Z,95557.81
2023-03-08T06:22:15.744Z,95560.63
2023-03-08T06:23:17.475Z,95565.00
2023-03-08T06:24:19.296Z,95560.63
2023-03-08T06:25:21.281Z,95563.19
2023-03-08T06:26:23.292Z,95561.00
2023-03-08T06:27:25.351Z,95566.53
2023-03-08T06:28:28.093Z,95562.19
2023-03-08T06:29:30.153Z,95563.41
2023-03-08T06:30:32.061Z,95559.81
2023-03-08T06:31:34.104Z,95553.84
2023-03-08T06:32:37.827Z,95556.63
2023-03-08T06:33:39.817Z,95554.03
2023-03-08T06:34:41.817Z,95554.63
2023-03-08T06:35:43.865Z,95556.81
2023-03-08T06:36:45.827Z,95554.44
2023-03-08T06:37:47.764Z,95549.84
2023-03-08T06:38:50.096Z,95543.72
2023-03-08T06:39:51.947Z,95547.28
2023-03-08T06:40:53.886Z,95544.91
2023-03-08T06:41:55.802Z,95549.84
2023-03-08T06:42:57.640Z,95548.66
2023-03-08T06:43:59.564Z,95544.50
2023-03-08T06:45:01.466Z,95546.09
2023-03-08T06:46:04.320Z,95544.13
2023-03-08T06:47:06.228Z,95548.69
2023-03-08T06:48:08.280Z,95540.94
2023-03-08T06:49:10.072Z,95533.75
2023-03-08T06:50:12.122Z,95539.16
2023-03-08T06:51:14.135Z,95544.88
2023-03-08T06:52:16.025Z,95538.31
2023-03-08T06:53:17.890Z,95531.38
2023-03-08T06:54:20.348Z,95529.00
2023-03-08T06:55:22.691Z,95536.34
2023-03-08T06:56:24.724Z,95531.00
2023-03-08T06:57:26.609Z,95535.75
2023-03-08T06:58:28.564Z,95534.78
2023-03-08T06:59:30.469Z,95534.78
2023-03-08T07:00:32.982Z,95536.94
2023-03-08T07:01:34.843Z,95536.94
2023-03-08T07:02:36.931Z,95544.13
2023-03-08T07:03:38.943Z,95542.31
2023-03-08T07:04:40.848Z,95537.75
2023-03-08T07:05:42.715Z,95541.94
2023-03-08T07:06:44.995Z,95536.38
2023-03-08T07:07:46.988Z,95540.56
2023-03-08T07:08:48.880Z,95535.16
2023-03-08T07:09:50.859Z,95534.59
2023-03-08T07:10:53.107Z,95524.25
2023-03-08T07:11:55.045Z,95532.97
2023-03-08T07:12:56.999Z,95532.19
2023-03-08T07:13:59.628Z,95530.19
2023-03-08T07:15:01.566Z,95525.25
2023-03-08T07:16:07.770Z,95533.38
2023-03-08T07:17:09.609Z,95526.84
2023-03-08T07:18:11.587Z,95526.22
2023-03-08T07:19:13.354Z,95519.06
2023-03-08T07:20:22.491Z,95525.81
2023-03-08T07:21:24.902Z,95520.28
2023-03-08T07:22:26.788Z,95521.25
2023-03-08T07:23:28.691Z,95520.47
2023-03-08T07:24:30.582Z,95515.47
2023-03-08T07:25:32.524Z,95513.91
2023-03-08T07:26:34.384Z,95516.47
2023-03-08T07:27:36.213Z,95515.66
2023-03-08T07:28:38.162Z,95510.09
2023-03-08T07:29:40.265Z,95507.13
2023-03-08T07:30:50.383Z,95503.31
2023-03-08T07:31:53.806Z,95503.31
2023-03-08T07:32:55.771Z,95500.53
2023-03-08T07:33:58.651Z,95492.34
2023-03-08T07:35:00.522Z,95486.00
2023-03-08T07:36:02.685Z,95478.44
2023-03-08T07:37:04.638Z,95481.03
2023-03-08T07:38:06.527Z,95474.25
2023-03-08T07:39:08.446Z,95468.50
2023-03-08T07:40:11.310Z,95460.13
2023-03-08T07:41:13.554Z,95462.91
2023-03-08T07:42:15.381Z,95453.94
2023-03-08T07:43:17.236Z,95459.50
2023-03-08T07:44:19.157Z,95454.91
2023-03-08T07:45:20.994Z,95456.09
2023-03-08T07:46:23.202Z,95455.28
2023-03-08T07:47:25.112Z,95448.69
2023-03-08T07:48:27.136Z,95449.28
2023-03-08T07:49:29.042Z,95445.66
2023-03-08T07:50:30.913Z,95452.84
2023-03-08T07:51:32.877Z,95446.84
2023-03-08T07:52:34.826Z,95454.00
2023-03-08T07:53:37.400Z,95451.63
2023-03-08T07:54:39.427Z,95446.25
2023-03-08T07:55:41.302Z,95450.22
2023-03-08T07:56:43.468Z,95444.84
2023-03-08T07:57:45.321Z,95440.97
2023-03-08T07:58:47.302Z,95442.53
2023-03-08T07:59:52.311Z,95443.34
2023-03-08T08:00:55.434Z,95447.69
2023-03-08T08:01:57.398Z,95445.44
2023-03-08T08:02:59.295Z,95445.66
2023-03-08T08:04:01.259Z,95445.28
2023-03-08T08:05:05.072Z,95446.47
2023-03-08T08:06:07.445Z,95443.66
2023-03-08T08:07:15.338Z,95446.84
2023-03-08T08:08:17.281Z,95441.97
2023-03-08T08:09:19.179Z,95441.94
2023-03-08T08:10:21.015Z,95445.47
2023-03-08T08:11:22.991Z,95442.84
2023-03-08T08:12:24.972Z,95446.75
2023-03-08T08:13:26.901Z,95445.53
2023-03-08T08:14:28.811Z,95454.47
2023-03-08T08:15:31.230Z,95451.81
2023-03-08T08:16:33.248Z,95457.38
2023-03-08T08:17:35.373Z,95458.13
2023-03-08T08:18:37.258Z,95451.63
2023-03-08T08:19:39.085Z,95455.56
2023-03-08T08:20:40.977Z,95454.13
2023-03-08T08:21:42.810Z,95458.84
2023-03-08T08:22:44.839Z,95461.03
2023-03-08T08:23:47.013Z,95459.03
2023-03-08T08:24:48.962Z,95461.41
2023-03-08T08:25:50.858Z,95459.03
2023-03-08T08:26:52.752Z,95460.97
2023-03-08T08:27:54.686Z,95455.34
2023-03-08T08:28:56.551Z,95461.25
2023-03-08T08:29:59.644Z,95460.84
2023-03-08T08:31:03.000Z,95452.59
2023-03-08T08:32:05.234Z,95457.59
2023-03-08T08:33:07.200Z,95454.56
2023-03-08T08:34:09.091Z,95452.09
2023-03-08T08:35:11.148Z,95451.09
2023-03-08T08:36:14.216Z,95455.47
2023-03-08T08:37:16.117Z,95452.56
2023-03-08T08:38:18.052Z,95447.78
2023-03-08T08:39:19.910Z,95450.59
2023-03-08T08:40:21.909Z,95452.59
2023-03-08T08:41:24.575Z,95456.84
2023-03-08T08:42:26.808Z,95449.63
2023-03-08T08:43:29.573Z,95455.66
2023-03-08T08:44:31.477Z,95454.81
2023-03-08T08:45:33.426Z,95455.41
2023-03-08T08:46:35.510Z,95458.59
2023-03-08T08:47:37.390Z,95453.75
2023-03-08T08:48:40.149Z,95455.72
2023-03-08T08:49:42.029Z,95451.91
2023-03-08T08:50:44.027Z,95455.28
2023-03-08T08:51:45.841Z,95448.50
2023-03-08T08:52:47.777Z,95451.31
2023-03-08T08:53:49.929Z,95443.91
2023-03-08T08:54:52.871Z,95441.44
2023-03-08T08:55:54.724Z,95446.78
2023-03-08T08:56:56.639Z,95441.69
2023-03-08T08:57:58.445Z,95443.41
2023-03-08T08:59:01.312Z,95447.75
2023-03-08T09:00:05.853Z,95445.28
2023-03-08T09:01:19.312Z,95444.84
2023-03-08T09:02:21.235Z,95436.63
2023-03-08T09:03:25.097Z,95433.94
2023-03-08T09:04:28.314Z,95430.22
2023-03-08T09:05:30.885Z,95432.41
2023-03-08T09:06:33.399Z,95435.22
2023-03-08T09:07:36.427Z,95428.00
2023-03-08T09:08:39.984Z,95429.50
2023-03-08T09:09:41.851Z,95428.59
2023-03-08T09:10:43.694Z,95427.72
2023-03-08T09:11:54.762Z,95431.19
2023-03-08T09:12:59.423Z,95430.97
2023-03-08T09:14:02.838Z,95418.91
2023-03-08T09:15:06.385Z,95426.28
2023-03-08T09:16:18.884Z,95417.34
2023-03-08T09:17:20.809Z,95416.03
2023-03-08T09:18:22.708Z,95419.31
2023-03-08T09:19:24.639Z,95413.88
2023-03-08T09:20:26.566Z,95405.31
2023-03-08T09:21:29.200Z,95403.69
2023-03-08T09:22:31.201Z,95404.16
2023-03-08T09:23:33.153Z,95404.94
2023-03-08T09:24:35.040Z,95405.88
2023-03-08T09:25:36.993Z,95397.63
2023-03-08T09:26:39.221Z,95397.16
2023-03-08T09:27:41.954Z,95394.13
2023-03-08T09:28:44.400Z,95390.50
2023-03-08T09:29:46.467Z,95387.53
2023-03-08T09:30:48.496Z,95390.28
2023-03-08T09:31:50.536Z,95384.72
2023-03-08T09:32:52.645Z,95386.09
2023-03-08T09:33:54.515Z,95387.78
2023-03-08T09:34:58.489Z,95376.47
2023-03-08T09:36:01.763Z,95380.78
2023-03-08T09:37:04.465Z,95379.31
2023-03-08T09:38:06.472Z,95377.00
2023-03-08T09:39:12.435Z,95378.03
2023-03-08T09:40:27.413Z,95376.22
2023-03-08T09:41:45.952Z,95371.81
2023-03-08T09:42:49.570Z,95371.81
2023-03-08T09:44:09.941Z,95362.44
2023-03-08T09:45:23.812Z,95367.44
2023-03-08T09:46:31.281Z,95371.81
2023-03-08T09:47:42.131Z,95360.28
2023-03-08T09:48:47.927Z,95362.78
2023-03-08T09:49:52.554Z,95359.84
2023-03-08T09:50:57.665Z,95353.19
2023-03-08T09:52:16.315Z,95359.50
2023-03-08T09:53:18.191Z,95356.78
2023-03-08T09:54:22.352Z,95359.94
2023-03-08T09:55:35.399Z,95355.31
2023-03-08T09:56:57.427Z,95360.28
2023-03-08T09:58:05.874Z,95358.47
2023-03-08T09:59:17.198Z,95350.44
2023-03-08T10:00:24.306Z,95349.50
2023-03-08T10:01:39.255Z,95337.75
2023-03-08T10:02:48.077Z,95329.56
2023-03-08T10:04:08.566Z,95323.44
2023-03-08T10:05:22.342Z,95315.59
2023-03-08T10:06:37.361Z,95313.50
2023-03-08T10:07:54.350Z,95310.03
2023-03-08T10:09:18.580Z,95303.56
2023-03-08T10:10:23.269Z,95284.78
2023-03-08T10:11:25.446Z,95279.19
2023-03-08T10:12:30.885Z,95276.81
2023-03-08T10:13:36.924Z,95275.81
2023-03-08T10:14:58.842Z,95274.31
2023-03-08T10:16:03.806Z,95279.84
2023-03-08T10:17:17.995Z,95270.53
2023-03-08T10:18:31.238Z,95278.22
2023-03-08T10:19:42.587Z,95265.06
2023-03-08T10:20:44.510Z,95259.88
2023-03-08T10:21:47.363Z,95260.44
2023-03-08T10:22:54.026Z,95253.56
2023-03-08T10:23:59.265Z,95251.94
2023-03-08T10:25:31.837Z,95246.66
2023-03-08T10:26:33.852Z,95237.59
2023-03-08T10:27:35.913Z,95252.69
2023-03-08T10:28:38.235Z,95243.81
2023-03-08T10:29:40.237Z,95241.53
2023-03-08T10:30:46.877Z,95231.66
2023-03-08T10:31:48.819Z,95232.00
2023-03-08T10:32:52.035Z,95229.94
2023-03-08T10:34:14.634Z,95221.16
2023-03-08T10:35:17.099Z,95215.03
2023-03-08T10:36:20.566Z,95213.59
2023-03-08T10:37:24.228Z,95205.94
2023-03-08T10:38:30.835Z,95203.44
2023-03-08T10:39:32.665Z,95199.41
2023-03-08T10:40:34.555Z,95198.16
2023-03-08T10:41:46.024Z,95195.94
2023-03-08T10:43:01.386Z,95202.03
2023-03-08T10:44:04.281Z,95184.16
2023-03-08T10:45:17.341Z,95186.38
2023-03-08T10:46:24.027Z,95181.03
2023-03-08T10:47:28.357Z,95178.28
2023-03-08T10:48:30.381Z,95168.38
2023-03-08T10:49:32.263Z,95159.56
2023-03-08T10:50:38.441Z,95159.59
2023-03-08T10:51:40.334Z,95154.66
2023-03-08T10:52:42.873Z,95148.16
2023-03-08T10:54:02.934Z,95140.09
2023-03-08T10:55:11.885Z,95130.94
2023-03-08T10:56:23.459Z,95127.78
2023-03-08T10:57:26.451Z,95123.09
2023-03-08T10:58:31.781Z,95106.91
2023-03-08T10:59:34.684Z,95105.88
2023-03-08T11:00:52.382Z,95101.94
2023-03-08T11:01:56.275Z,95104.56
2023-03-08T11:03:18.515Z,95103.53
2023-03-08T11:04:21.869Z,95093.34
2023-03-08T11:05:26.812Z,95085.00
2023-03-08T11:06:29.425Z,95085.56
2023-03-08T11:07:32.767Z,95078.25
2023-03-08T11:08:36.234Z,95072.25
2023-03-08T11:09:38.103Z,95059.41
2023-03-08T11:10:39.975Z,95061.00
2023-03-08T11:11:43.115Z,95062.63
2023-03-08T11:12:45.866Z,95062.38
2023-03-08T11:13:48.972Z,95059.00
2023-03-08T11:14:51.640Z,95051.19
2023-03-08T11:16:07.049Z,95055.34
2023-03-08T11:17:18.149Z,95045.94
2023-03-08T11:18:28.607Z,95044.97
2023-03-08T11:19:49.643Z,95050.47
2023-03-08T11:20:59.793Z,95047.13
2023-03-08T11:22:20.451Z,95041.88
2023-03-08T11:23:27.218Z,95032.97
2023-03-08T11:24:32.457Z,95037.41
2023-03-08T11:25:37.496Z,95030.59
2023-03-08T11:26:45.020Z,95028.50
2023-03-08T11:27:46.881Z,95022.72
2023-03-08T11:28:48.721Z,95018.53
2023-03-08T11:30:11.696Z,95016.94
2023-03-08T11:31:27.653Z,95021.91
2023-03-08T11:32:35.572Z,95009.53
2023-03-08T11:33:56.574Z,95013.44
2023-03-08T11:34:58.522Z,95016.06
2023-03-08T11:36:05.998Z,95008.97
2023-03-08T11:37:22.921Z,95008.19
2023-03-08T11:38:25.998Z,95006.66
2023-03-08T11:39:33.730Z,95008.75
2023-03-08T11:40:54.272Z,95003.03
2023-03-08T11:42:05.474Z,95004.38
2023-03-08T11:43:07.411Z,94997.22
2023-03-08T11:44:21.440Z,94988.78
2023-03-08T11:45:27.250Z,94980.31
2023-03-08T11:46:54.085Z,94987.69
2023-03-08T11:48:08.822Z,94971.50
2023-03-08T11:49:23.549Z,94970.63
2023-03-08T11:50:38.371Z,94966.34
2023-03-08T11:51:54.269Z,94966.25
2023-03-08T11:53:14.818Z,94953.78
2023-03-08T11:54:17.016Z,94951.31
2023-03-08T11:55:28.089Z,94943.03
2023-03-08T11:56:37.277Z,94933.44
2023-03-08T11:57:40.956Z,94927.81
2023-03-08T11:58:49.186Z,94935.28
2023-03-08T12:00:01.472Z,94927.28
2023-03-08T12:01:07.277Z,94925.56
2023-03-08T12:02:10.613Z,94927.97
2023-03-08T12:03:15.310Z,94934.78
2023-03-08T12:04:25.455Z,94923.50
2023-03-08T12:05:29.921Z,94927.19
2023-03-08T12:06:35.972Z,94926.00
2023-03-08T12:07:40.265Z,94921.78
2023-03-08T12:08:54.412Z,94921.50
2023-03-08T12:10:01.224Z,94920.75
2023-03-08T12:11:10.237Z,94925.97
2023-03-08T12:12:20.177Z,94916.50
2023-03-08T12:13:42.346Z,94929.91
2023-03-08T12:14:55.577Z,94926.16
2023-03-08T12:16:07.581Z,94916.25
2023-03-08T12:17:20.584Z,94919.16
2023-03-08T12:18:32.779Z,94917.09
2023-03-08T12:19:41.137Z,94916.25
2023-03-08T12:20:43.811Z,94908.91
2023-03-08T12:22:02.379Z,94910.72
2023-03-08T12:23:07.178Z,94912.47
2023-03-08T12:24:12.284Z,94910.88
2023-03-08T12:25:26.933Z,94902.00
2023-03-08T12:26:33.604Z,94902.84
2023-03-08T12:27:41.904Z,94914.13
2023-03-08T12:28:47.298Z,94910.22
2023-03-08T12:29:56.744Z,94911.34
2023-03-08T12:31:04.059Z,94907.22